createdAt,value
2018-02-10T00:00:04.254Z,1011.25
2018-02-10T00:01:14.194Z,1011.24
2018-02-10T00:02:24.195Z,1011.3
2018-02-10T00:03:34.403Z,1011.27
2018-02-10T00:04:44.341Z,1011.31
2018-02-10T00:05:54.289Z,1011.28
2018-02-10T00:07:04.242Z,1011.31
2018-02-10T00:08:14.193Z,1011.31
2018-02-10T00:09:23.368Z,1011.3
2018-02-10T00:10:33.059Z,1011.37
2018-02-10T00:11:43.024Z,1011.35
2018-02-10T00:12:52.780Z,1011.33
2018-02-10T00:14:02.487Z,1011.36
2018-02-10T00:15:12.182Z,1011.33
2018-02-10T00:16:21.876Z,1011.35
2018-02-10T00:17:31.827Z,1011.35
2018-02-10T00:18:41.522Z,1011.37
2018-02-10T00:19:51.204Z,1011.33
2018-02-10T00:21:01.156Z,1011.38
2018-02-10T00:22:10.835Z,1011.35
2018-02-10T00:23:20.782Z,1011.36
2018-02-10T00:24:30.726Z,1011.32
2018-02-10T00:25:40.685Z,1011.36
2018-02-10T00:26:50.386Z,1011.37
2018-02-10T00:28:00.087Z,1011.37
2018-02-10T00:29:10.048Z,1011.4
2018-02-10T00:30:19.990Z,1011.36
2018-02-10T00:31:29.933Z,1011.39
2018-02-10T00:32:39.902Z,1011.4
2018-02-10T00:33:49.331Z,1011.44
2018-02-10T00:34:59.272Z,1011.49
2018-02-10T00:36:09.222Z,1011.48
2018-02-10T00:37:18.910Z,1011.45
2018-02-10T00:38:28.856Z,1011.47
2018-02-10T00:39:38.814Z,1011.49
2018-02-10T00:40:48.756Z,1011.5
2018-02-10T00:41:58.701Z,1011.52
2018-02-10T00:43:08.652Z,1011.52
2018-02-10T00:44:18.590Z,1011.51
2018-02-10T00:45:28.029Z,1011.47
2018-02-10T00:46:37.715Z,1011.49
2018-02-10T00:47:47.147Z,1011.51
2018-02-10T00:48:57.091Z,1011.53
2018-02-10T00:50:06.775Z,1011.51
2018-02-10T00:51:16.731Z,1011.5
2018-02-10T00:52:26.694Z,1011.51
2018-02-10T00:53:36.398Z,1011.54
2018-02-10T00:54:46.386Z,1011.51
2018-02-10T00:55:56.375Z,1011.51
2018-02-10T00:57:06.325Z,1011.47
2018-02-10T00:58:16.017Z,1011.5
2018-02-10T00:59:25.971Z,1011.5
2018-02-10T01:00:35.696Z,1011.51
2018-02-10T01:01:45.380Z,1011.5
2018-02-10T01:02:55.126Z,1011.49
2018-02-10T01:04:05.070Z,1011.46
2018-02-10T01:05:14.766Z,1011.46
2018-02-10T01:06:24.454Z,1011.38
2018-02-10T01:07:34.638Z,1011.41
2018-02-10T01:08:44.588Z,1011.41
2018-02-10T01:09:54.591Z,1011.44
2018-02-10T01:11:04.298Z,1011.41
2018-02-10T01:12:14.252Z,1011.41
2018-02-10T01:13:24.205Z,1011.42
2018-02-10T01:14:33.906Z,1011.41
2018-02-10T01:15:43.334Z,1011.4
2018-02-10T01:16:53.299Z,1011.41
2018-02-10T01:18:03.249Z,1011.42
2018-02-10T01:19:13.196Z,1011.45
2018-02-10T01:20:23.138Z,1011.42
2018-02-10T01:21:33.081Z,1011.47
2018-02-10T01:22:43.014Z,1011.44
2018-02-10T01:23:52.970Z,1011.44
2018-02-10T01:25:02.914Z,1011.44
2018-02-10T01:26:12.872Z,1011.42
2018-02-10T01:27:22.816Z,1011.42
2018-02-10T01:28:32.788Z,1011.47
2018-02-10T01:29:42.465Z,1011.47
2018-02-10T01:30:52.148Z,1011.47
2018-02-10T01:32:02.101Z,1011.48
2018-02-10T01:33:12.112Z,1011.48
2018-02-10T01:34:21.799Z,1011.51
2018-02-10T01:35:31.496Z,1011.5
2018-02-10T01:36:41.178Z,1011.47
2018-02-10T01:37:50.856Z,1011.47
2018-02-10T01:39:00.547Z,1011.47
2018-02-10T01:40:09.992Z,1011.45
2018-02-10T01:41:19.970Z,1011.42
2018-02-10T01:42:29.915Z,1011.43
2018-02-10T01:43:39.606Z,1011.42
2018-02-10T01:44:49.546Z,1011.42
2018-02-10T01:45:59.483Z,1011.41
2018-02-10T01:47:09.413Z,1011.43
2018-02-10T01:48:19.367Z,1011.42
2018-02-10T01:49:29.315Z,1011.41
2018-02-10T01:50:39.257Z,1011.4
2018-02-10T01:51:49.201Z,1011.42
2018-02-10T01:52:59.144Z,1011.4
2018-02-10T01:54:08.830Z,1011.39
2018-02-10T01:55:18.774Z,1011.41
2018-02-10T01:56:28.457Z,1011.42
2018-02-10T01:57:38.402Z,1011.43
2018-02-10T01:58:48.356Z,1011.39
2018-02-10T01:59:58.289Z,1011.41
2018-02-10T02:01:08.244Z,1011.41
2018-02-10T02:02:18.187Z,1011.43
2018-02-10T02:03:28.125Z,1011.44
2018-02-10T02:04:38.077Z,1011.41
2018-02-10T02:05:47.754Z,1011.45
2018-02-10T02:06:57.695Z,1011.45
2018-02-10T02:08:07.699Z,1011.43
2018-02-10T02:09:17.643Z,1011.4
2018-02-10T02:10:27.608Z,1011.4
2018-02-10T02:11:37.050Z,1011.42
2018-02-10T02:12:46.991Z,1011.4
2018-02-10T02:13:56.937Z,1011.34
2018-02-10T02:15:06.874Z,1011.35
2018-02-10T02:16:16.827Z,1011.34
2018-02-10T02:17:26.282Z,1011.38
2018-02-10T02:18:36.017Z,1011.41
2018-02-10T02:19:45.695Z,1011.42
2018-02-10T02:20:55.644Z,1011.4
2018-02-10T02:22:05.589Z,1011.37
2018-02-10T02:23:15.531Z,1011.35
2018-02-10T02:24:25.465Z,1011.35
2018-02-10T02:25:34.901Z,1011.34
2018-02-10T02:26:44.901Z,1011.33
2018-02-10T02:27:54.853Z,1011.31
2018-02-10T02:29:04.795Z,1011.3
2018-02-10T02:30:14.487Z,1011.28
2018-02-10T02:31:24.180Z,1011.34
2018-02-10T02:32:33.616Z,1011.3
2018-02-10T02:33:43.565Z,1011.33
2018-02-10T02:34:53.261Z,1011.29
2018-02-10T02:36:03.212Z,1011.29
2018-02-10T02:37:13.397Z,1011.28
2018-02-10T02:38:23.099Z,1011.26
2018-02-10T02:39:32.783Z,1011.27
2018-02-10T02:40:42.474Z,1011.28
2018-02-10T02:41:52.173Z,1011.28
2018-02-10T02:43:01.876Z,1011.3
2018-02-10T02:44:11.853Z,1011.28
2018-02-10T02:45:21.824Z,1011.26
2018-02-10T02:46:31.522Z,1011.28
2018-02-10T02:47:41.210Z,1011.27
2018-02-10T02:48:50.644Z,1011.25
2018-02-10T02:50:00.588Z,1011.28
2018-02-10T02:51:10.269Z,1011.26
2018-02-10T02:52:20.207Z,1011.24
2018-02-10T02:53:29.899Z,1011.2
2018-02-10T02:54:39.870Z,1011.16
2018-02-10T02:55:49.803Z,1011.2
2018-02-10T02:56:59.744Z,1011.17
2018-02-10T02:58:09.719Z,1011.17
2018-02-10T02:59:19.720Z,1011.19
2018-02-10T03:00:29.659Z,1011.2
2018-02-10T03:01:39.675Z,1011.18
2018-02-10T03:02:49.362Z,1011.18
2018-02-10T03:03:59.045Z,1011.14
2018-02-10T03:05:08.733Z,1011.19
2018-02-10T03:06:18.689Z,1011.16
2018-02-10T03:07:28.633Z,1011.14
2018-02-10T03:08:38.320Z,1011.13
2018-02-10T03:09:48.269Z,1011.14
2018-02-10T03:10:58.221Z,1011.11
2018-02-10T03:12:07.902Z,1011.12
2018-02-10T03:13:17.842Z,1011.1
2018-02-10T03:14:27.572Z,1011.11
2018-02-10T03:15:37.512Z,1011.12
2018-02-10T03:16:47.461Z,1011.1
2018-02-10T03:17:57.140Z,1011.08
2018-02-10T03:19:07.085Z,1011.08
2018-02-10T03:20:16.894Z,1011.05
2018-02-10T03:21:26.845Z,1011.05
2018-02-10T03:22:36.594Z,1011.09
2018-02-10T03:23:46.529Z,1011.08
2018-02-10T03:24:56.464Z,1011.09
2018-02-10T03:26:06.405Z,1011.09
2018-02-10T03:27:16.343Z,1011.09
2018-02-10T03:28:26.026Z,1011.1
2018-02-10T03:29:35.966Z,1011.07
2018-02-10T03:30:45.669Z,1011.08
2018-02-10T03:31:55.363Z,1011.02
2018-02-10T03:33:05.309Z,1011.05
2018-02-10T03:34:14.740Z,1011.01
2018-02-10T03:35:24.455Z,1011.02
2018-02-10T03:36:33.885Z,1011.05
2018-02-10T03:37:43.834Z,1011.03
2018-02-10T03:38:53.529Z,1011.04
2018-02-10T03:40:03.211Z,1011.03
2018-02-10T03:41:13.155Z,1011.01
2018-02-10T03:42:23.101Z,1010.99
2018-02-10T03:43:33.038Z,1010.96
2018-02-10T03:44:42.993Z,1011.05
2018-02-10T03:45:52.677Z,1011.02
2018-02-10T03:47:02.358Z,1010.98
2018-02-10T03:48:11.786Z,1011.03
2018-02-10T03:49:21.733Z,1011.01
2018-02-10T03:50:31.431Z,1011.04
2018-02-10T03:51:41.180Z,1011
2018-02-10T03:52:50.866Z,1011.07
2018-02-10T03:54:00.552Z,1011.05
2018-02-10T03:55:10.227Z,1011.04
2018-02-10T03:56:20.171Z,1011.02
2018-02-10T03:57:30.116Z,1011.03
2018-02-10T03:58:40.054Z,1011.04
2018-02-10T03:59:50.004Z,1011.03
2018-02-10T04:00:59.987Z,1011.05
2018-02-10T04:02:09.637Z,1011.02
2018-02-10T04:03:19.624Z,1011.12
2018-02-10T04:04:29.559Z,1011.08
2018-02-10T04:05:38.991Z,1011.09
2018-02-10T04:06:48.936Z,1011.06
2018-02-10T04:07:58.884Z,1011.12
2018-02-10T04:09:08.576Z,1011.1
2018-02-10T04:10:18.261Z,1011.16
2018-02-10T04:11:28.201Z,1011.12
2018-02-10T04:12:38.144Z,1011.14
2018-02-10T04:13:48.090Z,1011.17
2018-02-10T04:14:58.034Z,1011.2
2018-02-10T04:16:07.732Z,1011.17
2018-02-10T04:17:16.911Z,1011.2
2018-02-10T04:18:26.857Z,1011.18
2018-02-10T04:19:36.797Z,1011.19
2018-02-10T04:20:46.733Z,1011.19
2018-02-10T04:21:56.413Z,1011.21
2018-02-10T04:23:06.347Z,1011.19
2018-02-10T04:24:16.293Z,1011.22
2018-02-10T04:25:26.237Z,1011.22
2018-02-10T04:26:36.174Z,1011.15
2018-02-10T04:27:46.120Z,1011.15
2018-02-10T04:28:55.795Z,1011.14
2018-02-10T04:30:05.484Z,1011.16
2018-02-10T04:31:15.165Z,1011.09
2018-02-10T04:32:25.094Z,1011.13
2018-02-10T04:33:34.769Z,1011.15
2018-02-10T04:34:44.712Z,1011.1
2018-02-10T04:35:54.398Z,1011.09
2018-02-10T04:37:03.836Z,1011.11
2018-02-10T04:38:13.518Z,1011.09
2018-02-10T04:39:23.450Z,1011.13
2018-02-10T04:40:33.396Z,1011.12
2018-02-10T04:41:43.080Z,1011.07
2018-02-10T04:42:52.764Z,1011.12
2018-02-10T04:44:02.473Z,1011.11
2018-02-10T04:45:12.678Z,1011.17
2018-02-10T04:46:22.364Z,1011.06
2018-02-10T04:47:32.308Z,1011.1
2018-02-10T04:48:42.260Z,1011.09
2018-02-10T04:49:52.197Z,1011.07
2018-02-10T04:51:02.135Z,1011.05
2018-02-10T04:52:11.820Z,1011.1
2018-02-10T04:53:21.766Z,1011.13
2018-02-10T04:54:31.458Z,1011.06
2018-02-10T04:55:41.148Z,1011.05
2018-02-10T04:56:51.084Z,1011.05
2018-02-10T04:58:01.025Z,1011.09
2018-02-10T04:59:10.712Z,1011.04
2018-02-10T05:00:20.651Z,1011.02
2018-02-10T05:01:30.338Z,1011.05
2018-02-10T05:02:40.023Z,1011.06
2018-02-10T05:03:49.970Z,1011.02
2018-02-10T05:04:59.907Z,1011.1
2018-02-10T05:06:09.863Z,1011.06
2018-02-10T05:07:19.544Z,1011.09
2018-02-10T05:08:29.250Z,1011.14
2018-02-10T05:09:39.196Z,1011.09
2018-02-10T05:10:49.151Z,1011.1
2018-02-10T05:11:59.095Z,1011.13
2018-02-10T05:13:09.025Z,1011.15
2018-02-10T05:14:19.009Z,1011.16
2018-02-10T05:15:28.958Z,1011.19
2018-02-10T05:16:38.648Z,1011.21
2018-02-10T05:17:48.340Z,1011.19
2018-02-10T05:18:58.300Z,1011.19
2018-02-10T05:20:08.240Z,1011.19
2018-02-10T05:21:17.967Z,1011.17
2018-02-10T05:22:27.912Z,1011.21
2018-02-10T05:23:37.847Z,1011.21
2018-02-10T05:24:47.784Z,1011.22
2018-02-10T05:25:57.724Z,1011.15
2018-02-10T05:27:07.672Z,1011.19
2018-02-10T05:28:17.104Z,1011.15
2018-02-10T05:29:27.041Z,1011.2
2018-02-10T05:30:36.744Z,1011.16
2018-02-10T05:31:46.682Z,1011.17
2018-02-10T05:32:56.632Z,1011.17
2018-02-10T05:34:06.317Z,1011.14
2018-02-10T05:35:15.998Z,1011.2
2018-02-10T05:36:25.683Z,1011.17
2018-02-10T05:37:35.833Z,1011.18
2018-02-10T05:38:45.791Z,1011.2
2018-02-10T05:39:55.746Z,1011.21
2018-02-10T05:41:05.438Z,1011.22
2018-02-10T05:42:15.387Z,1011.28
2018-02-10T05:43:25.328Z,1011.26
2018-02-10T05:44:35.272Z,1011.24
2018-02-10T05:45:45.206Z,1011.27
2018-02-10T05:46:54.895Z,1011.29
2018-02-10T05:48:04.892Z,1011.31
2018-02-10T05:49:14.845Z,1011.29
2018-02-10T05:50:24.795Z,1011.36
2018-02-10T05:51:34.748Z,1011.38
2018-02-10T05:52:44.717Z,1011.35
2018-02-10T05:53:54.660Z,1011.35
2018-02-10T05:55:04.596Z,1011.38
2018-02-10T05:56:14.020Z,1011.36
2018-02-10T05:57:23.960Z,1011.33
2018-02-10T05:58:33.973Z,1011.41
2018-02-10T05:59:43.668Z,1011.44
2018-02-10T06:00:53.352Z,1011.41
2018-02-10T06:02:03.291Z,1011.41
2018-02-10T06:03:13.240Z,1011.45
2018-02-10T06:04:23.174Z,1011.44
2018-02-10T06:05:33.118Z,1011.42
2018-02-10T06:06:43.052Z,1011.41
2018-02-10T06:07:52.990Z,1011.47
2018-02-10T06:09:02.418Z,1011.46
2018-02-10T06:10:12.364Z,1011.44
2018-02-10T06:11:22.112Z,1011.4
2018-02-10T06:12:32.050Z,1011.46
2018-02-10T06:13:42.022Z,1011.45
2018-02-10T06:14:52.009Z,1011.43
2018-02-10T06:16:01.434Z,1011.45
2018-02-10T06:17:11.158Z,1011.45
2018-02-10T06:18:21.115Z,1011.45
2018-02-10T06:19:31.053Z,1011.5
2018-02-10T06:20:41.018Z,1011.48
2018-02-10T06:21:50.738Z,1011.55
2018-02-10T06:23:00.690Z,1011.54
2018-02-10T06:24:10.641Z,1011.55
2018-02-10T06:25:20.584Z,1011.54
2018-02-10T06:26:30.565Z,1011.58
2018-02-10T06:27:40.255Z,1011.61
2018-02-10T06:28:50.253Z,1011.55
2018-02-10T06:30:00.208Z,1011.59
2018-02-10T06:31:10.163Z,1011.59
2018-02-10T06:32:20.098Z,1011.62
2018-02-10T06:33:30.043Z,1011.64
2018-02-10T06:34:39.731Z,1011.63
2018-02-10T06:35:49.682Z,1011.69
2018-02-10T06:36:59.625Z,1011.66
2018-02-10T06:38:09.600Z,1011.63
2018-02-10T06:39:19.313Z,1011.63
2018-02-10T06:40:29.257Z,1011.62
2018-02-10T06:41:39.214Z,1011.64
2018-02-10T06:42:49.155Z,1011.63
2018-02-10T06:43:59.098Z,1011.63
2018-02-10T06:45:08.789Z,1011.62
2018-02-10T06:46:18.731Z,1011.64
2018-02-10T06:47:28.677Z,1011.64
2018-02-10T06:48:38.363Z,1011.66
2018-02-10T06:49:48.059Z,1011.65
2018-02-10T06:50:57.753Z,1011.72
2018-02-10T06:52:07.702Z,1011.71
2018-02-10T06:53:17.639Z,1011.69
2018-02-10T06:54:27.571Z,1011.7
2018-02-10T06:55:37.256Z,1011.71
2018-02-10T06:56:46.931Z,1011.75
2018-02-10T06:57:56.870Z,1011.75
2018-02-10T06:59:06.820Z,1011.74
2018-02-10T07:00:16.762Z,1011.74
2018-02-10T07:01:26.704Z,1011.71
2018-02-10T07:02:36.662Z,1011.72
2018-02-10T07:03:46.348Z,1011.79
2018-02-10T07:04:56.294Z,1011.75
2018-02-10T07:06:06.242Z,1011.74
2018-02-10T07:07:15.670Z,1011.8
2018-02-10T07:08:25.606Z,1011.8
2018-02-10T07:09:35.562Z,1011.83
2018-02-10T07:10:45.250Z,1011.79
2018-02-10T07:11:55.204Z,1011.82
2018-02-10T07:13:04.899Z,1011.84
2018-02-10T07:14:14.845Z,1011.84
2018-02-10T07:15:24.798Z,1011.84
2018-02-10T07:16:34.742Z,1011.86
2018-02-10T07:17:44.681Z,1011.87
2018-02-10T07:18:54.401Z,1011.89
2018-02-10T07:20:03.853Z,1011.87
2018-02-10T07:21:13.545Z,1011.83
2018-02-10T07:22:23.493Z,1011.88
2018-02-10T07:23:33.434Z,1011.94
2018-02-10T07:24:43.384Z,1011.92
2018-02-10T07:25:53.323Z,1011.92
2018-02-10T07:27:03.020Z,1011.93
2018-02-10T07:28:12.701Z,1011.92
2018-02-10T07:29:22.642Z,1011.95
2018-02-10T07:30:32.585Z,1011.94
2018-02-10T07:31:42.271Z,1011.93
2018-02-10T07:32:52.221Z,1011.93
2018-02-10T07:34:02.165Z,1011.9
2018-02-10T07:35:12.118Z,1011.88
2018-02-10T07:36:22.067Z,1011.94
2018-02-10T07:37:31.506Z,1011.94
2018-02-10T07:38:41.480Z,1011.88
2018-02-10T07:39:51.422Z,1011.91
2018-02-10T07:41:01.354Z,1011.92
2018-02-10T07:42:11.303Z,1011.91
2018-02-10T07:43:21.243Z,1011.9
2018-02-10T07:44:31.188Z,1011.9
2018-02-10T07:45:41.130Z,1011.91
2018-02-10T07:46:51.075Z,1011.96
2018-02-10T07:48:00.761Z,1011.91
2018-02-10T07:49:10.184Z,1011.93
2018-02-10T07:50:19.870Z,1011.97
2018-02-10T07:51:29.301Z,1012
2018-02-10T07:52:38.743Z,1011.97
2018-02-10T07:53:48.175Z,1011.97
2018-02-10T07:54:58.142Z,1011.97
2018-02-10T07:56:07.829Z,1012.02
2018-02-10T07:57:17.770Z,1011.99
2018-02-10T07:58:27.717Z,1011.96
2018-02-10T07:59:37.419Z,1011.96
2018-02-10T08:00:47.107Z,1011.94
2018-02-10T08:01:56.538Z,1011.94
2018-02-10T08:03:06.504Z,1011.91
2018-02-10T08:04:16.198Z,1011.97
2018-02-10T08:05:25.883Z,1011.96
2018-02-10T08:06:35.824Z,1011.93
2018-02-10T08:07:45.781Z,1011.93
2018-02-10T08:08:55.496Z,1011.97
2018-02-10T08:10:05.450Z,1011.97
2018-02-10T08:11:15.382Z,1011.96
2018-02-10T08:12:25.324Z,1011.96
2018-02-10T08:13:35.021Z,1011.99
2018-02-10T08:14:44.703Z,1011.97
2018-02-10T08:15:54.648Z,1011.94
2018-02-10T08:17:04.587Z,1011.99
2018-02-10T08:18:14.302Z,1011.99
2018-02-10T08:19:23.995Z,1011.97
2018-02-10T08:20:33.957Z,1011.99
2018-02-10T08:21:43.904Z,1011.97
2018-02-10T08:22:53.840Z,1011.98
2018-02-10T08:24:03.786Z,1011.99
2018-02-10T08:25:13.472Z,1012.04
2018-02-10T08:26:23.467Z,1012.03
2018-02-10T08:27:33.413Z,1012.06
2018-02-10T08:28:43.356Z,1011.98
2018-02-10T08:29:53.312Z,1011.97
2018-02-10T08:31:03.254Z,1012.03
2018-02-10T08:32:13.208Z,1012.03
2018-02-10T08:33:23.150Z,1011.99
2018-02-10T08:34:32.847Z,1011.98
2018-02-10T08:35:42.523Z,1011.98
2018-02-10T08:36:52.475Z,1011.95
2018-02-10T08:38:01.901Z,1011.95
2018-02-10T08:39:11.847Z,1011.97
2018-02-10T08:40:21.803Z,1012
2018-02-10T08:41:31.503Z,1012
2018-02-10T08:42:40.931Z,1012.03
2018-02-10T08:43:50.884Z,1012.03
2018-02-10T08:45:00.586Z,1012.04
2018-02-10T08:46:10.548Z,1012.08
2018-02-10T08:47:20.488Z,1012.04
2018-02-10T08:48:30.180Z,1012.02
2018-02-10T08:49:40.124Z,1012.04
2018-02-10T08:50:49.562Z,1012.04
2018-02-10T08:51:59.504Z,1012.05
2018-02-10T08:53:09.444Z,1012.03
2018-02-10T08:54:19.389Z,1012.06
2018-02-10T08:55:29.342Z,1012.01
2018-02-10T08:56:39.025Z,1011.94
2018-02-10T08:57:48.966Z,1011.96
2018-02-10T08:58:58.910Z,1012
2018-02-10T09:00:08.864Z,1011.95
2018-02-10T09:01:18.814Z,1011.91
2018-02-10T09:02:28.763Z,1011.9
2018-02-10T09:03:38.449Z,1011.9
2018-02-10T09:04:48.406Z,1011.88
2018-02-10T09:05:58.368Z,1011.87
2018-02-10T09:07:08.305Z,1011.9
2018-02-10T09:08:18.265Z,1011.85
2018-02-10T09:09:28.207Z,1011.87
2018-02-10T09:10:37.905Z,1011.84
2018-02-10T09:11:47.848Z,1011.83
2018-02-10T09:12:57.791Z,1011.85
2018-02-10T09:14:07.761Z,1011.86
2018-02-10T09:15:17.707Z,1011.85
2018-02-10T09:16:27.649Z,1011.85
2018-02-10T09:17:37.352Z,1011.89
2018-02-10T09:18:47.301Z,1011.88
2018-02-10T09:19:57.235Z,1011.89
2018-02-10T09:21:06.663Z,1011.91
2018-02-10T09:22:16.356Z,1011.95
2018-02-10T09:23:26.045Z,1011.95
2018-02-10T09:24:35.737Z,1011.92
2018-02-10T09:25:45.686Z,1011.96
2018-02-10T09:26:55.725Z,1011.96
2018-02-10T09:28:05.421Z,1011.96
2018-02-10T09:29:15.411Z,1011.99
2018-02-10T09:30:25.105Z,1011.97
2018-02-10T09:31:35.067Z,1011.97
2018-02-10T09:32:44.749Z,1011.97
2018-02-10T09:33:54.436Z,1011.98
2018-02-10T09:35:04.388Z,1011.95
2018-02-10T09:36:14.082Z,1011.99
2018-02-10T09:37:24.034Z,1011.97
2018-02-10T09:38:33.983Z,1012.02
2018-02-10T09:39:43.930Z,1012.01
2018-02-10T09:40:53.649Z,1011.98
2018-02-10T09:42:03.350Z,1012
2018-02-10T09:43:13.281Z,1011.98
2018-02-10T09:44:23.049Z,1011.96
2018-02-10T09:45:32.737Z,1011.93
2018-02-10T09:46:42.712Z,1011.85
2018-02-10T09:47:52.658Z,1011.89
2018-02-10T09:49:02.342Z,1011.84
2018-02-10T09:50:11.772Z,1011.87
2018-02-10T09:51:21.718Z,1011.86
2018-02-10T09:52:31.415Z,1011.83
2018-02-10T09:53:41.438Z,1011.83
2018-02-10T09:54:51.386Z,1011.83
2018-02-10T09:56:01.085Z,1011.78
2018-02-10T09:57:10.772Z,1011.81
2018-02-10T09:58:20.718Z,1011.79
2018-02-10T09:59:30.406Z,1011.82
2018-02-10T10:00:40.356Z,1011.8
2018-02-10T10:01:50.310Z,1011.8
2018-02-10T10:02:59.997Z,1011.77
2018-02-10T10:04:09.939Z,1011.76
2018-02-10T10:05:19.895Z,1011.69
2018-02-10T10:06:29.841Z,1011.71
2018-02-10T10:07:39.792Z,1011.71
2018-02-10T10:08:49.480Z,1011.68
2018-02-10T10:09:59.420Z,1011.65
2018-02-10T10:11:09.368Z,1011.65
2018-02-10T10:12:19.336Z,1011.67
2018-02-10T10:13:29.277Z,1011.67
2018-02-10T10:14:39.217Z,1011.62
2018-02-10T10:15:48.909Z,1011.66
2018-02-10T10:16:58.337Z,1011.62
2018-02-10T10:18:08.292Z,1011.62
2018-02-10T10:19:17.988Z,1011.63
2018-02-10T10:20:27.941Z,1011.6
2018-02-10T10:21:37.903Z,1011.59
2018-02-10T10:22:47.852Z,1011.64
2018-02-10T10:23:57.799Z,1011.62
2018-02-10T10:25:07.494Z,1011.62
2018-02-10T10:26:17.462Z,1011.61
2018-02-10T10:27:27.155Z,1011.64
2018-02-10T10:28:37.108Z,1011.61
2018-02-10T10:29:47.051Z,1011.64
2018-02-10T10:30:56.996Z,1011.62
2018-02-10T10:32:06.939Z,1011.61
2018-02-10T10:33:16.889Z,1011.65
2018-02-10T10:34:26.849Z,1011.6
2018-02-10T10:35:36.296Z,1011.63
2018-02-10T10:36:46.010Z,1011.56
2018-02-10T10:37:55.959Z,1011.59
2018-02-10T10:39:05.909Z,1011.61
2018-02-10T10:40:15.598Z,1011.6
2018-02-10T10:41:25.072Z,1011.63
2018-02-10T10:42:35.029Z,1011.67
2018-02-10T10:43:44.714Z,1011.67
2018-02-10T10:44:54.783Z,1011.68
2018-02-10T10:46:04.728Z,1011.68
2018-02-10T10:47:14.492Z,1011.62
2018-02-10T10:48:24.453Z,1011.63
2018-02-10T10:49:34.431Z,1011.61
2018-02-10T10:50:44.383Z,1011.63
2018-02-10T10:51:53.828Z,1011.63
2018-02-10T10:53:03.768Z,1011.64
2018-02-10T10:54:13.780Z,1011.64
2018-02-10T10:55:23.730Z,1011.59
2018-02-10T10:56:33.413Z,1011.62
2018-02-10T10:57:42.860Z,1011.62
2018-02-10T10:58:52.816Z,1011.57
2018-02-10T11:00:02.513Z,1011.63
2018-02-10T11:01:12.462Z,1011.56
2018-02-10T11:02:22.416Z,1011.58
2018-02-10T11:03:32.374Z,1011.57
2018-02-10T11:04:42.327Z,1011.54
2018-02-10T11:05:52.268Z,1011.54
2018-02-10T11:07:02.209Z,1011.52
2018-02-10T11:08:12.168Z,1011.52
2018-02-10T11:09:22.117Z,1011.52
2018-02-10T11:10:32.054Z,1011.49
2018-02-10T11:11:41.999Z,1011.46
2018-02-10T11:12:51.955Z,1011.44
2018-02-10T11:14:01.894Z,1011.43
2018-02-10T11:15:11.607Z,1011.46
2018-02-10T11:16:21.564Z,1011.42
2018-02-10T11:17:31.514Z,1011.45
2018-02-10T11:18:41.521Z,1011.38
2018-02-10T11:19:51.474Z,1011.36
2018-02-10T11:21:01.418Z,1011.38
2018-02-10T11:22:11.367Z,1011.36
2018-02-10T11:23:21.413Z,1011.33
2018-02-10T11:24:31.102Z,1011.3
2018-02-10T11:25:41.050Z,1011.32
2018-02-10T11:26:50.734Z,1011.25
2018-02-10T11:28:00.177Z,1011.25
2018-02-10T11:29:10.156Z,1011.25
2018-02-10T11:30:19.848Z,1011.23
2018-02-10T11:31:29.831Z,1011.21
2018-02-10T11:32:40.041Z,1011.21
2018-02-10T11:33:50.049Z,1011.18
2018-02-10T11:34:59.730Z,1011.09
2018-02-10T11:36:09.433Z,1011.08
2018-02-10T11:37:19.395Z,1011.08
2018-02-10T11:38:29.147Z,1011.05
2018-02-10T11:39:39.089Z,1011.01
2018-02-10T11:40:48.790Z,1011.03
2018-02-10T11:41:58.486Z,1011.02
2018-02-10T11:43:08.177Z,1011.04
2018-02-10T11:44:18.146Z,1010.94
2018-02-10T11:45:27.855Z,1010.94
2018-02-10T11:46:37.292Z,1010.91
2018-02-10T11:47:47.237Z,1010.87
2018-02-10T11:48:57.186Z,1010.88
2018-02-10T11:50:07.226Z,1010.83
2018-02-10T11:51:17.173Z,1010.85
2018-02-10T11:52:27.126Z,1010.8
2018-02-10T11:53:36.833Z,1010.83
2018-02-10T11:54:46.354Z,1010.82
2018-02-10T11:55:56.346Z,1010.82
2018-02-10T11:57:06.039Z,1010.85
2018-02-10T11:58:15.975Z,1010.77
2018-02-10T11:59:25.990Z,1010.8
2018-02-10T12:00:36.172Z,1010.75
2018-02-10T12:01:45.341Z,1010.84
2018-02-10T12:02:55.037Z,1010.79
2018-02-10T12:04:04.979Z,1010.79
2018-02-10T12:05:14.679Z,1010.76
2018-02-10T12:06:24.377Z,1010.76
2018-02-10T12:07:33.817Z,1010.72
2018-02-10T12:08:43.519Z,1010.75
2018-02-10T12:09:53.227Z,1010.74
2018-02-10T12:11:03.199Z,1010.74
2018-02-10T12:12:12.906Z,1010.72
2018-02-10T12:13:22.588Z,1010.67
2018-02-10T12:14:32.387Z,1010.67
2018-02-10T12:15:42.099Z,1010.68
2018-02-10T12:16:51.810Z,1010.65
2018-02-10T12:18:01.769Z,1010.58
2018-02-10T12:19:11.721Z,1010.61
2018-02-10T12:20:21.428Z,1010.54
2018-02-10T12:21:31.377Z,1010.57
2018-02-10T12:22:40.808Z,1010.58
2018-02-10T12:23:50.517Z,1010.53
2018-02-10T12:25:00.489Z,1010.55
2018-02-10T12:26:10.471Z,1010.5
2018-02-10T12:27:20.438Z,1010.45
2018-02-10T12:28:30.395Z,1010.45
2018-02-10T12:29:40.079Z,1010.41
2018-02-10T12:30:50.041Z,1010.44
2018-02-10T12:32:00.054Z,1010.45
2018-02-10T12:33:10.107Z,1010.44
2018-02-10T12:34:20.050Z,1010.48
2018-02-10T12:35:29.491Z,1010.5
2018-02-10T12:36:39.432Z,1010.48
2018-02-10T12:37:48.855Z,1010.46
2018-02-10T12:38:58.541Z,1010.41
2018-02-10T12:40:08.515Z,1010.43
2018-02-10T12:41:18.478Z,1010.4
2018-02-10T12:42:27.902Z,1010.43
2018-02-10T12:43:37.600Z,1010.4
2018-02-10T12:44:47.556Z,1010.39
2018-02-10T12:45:57.561Z,1010.35
2018-02-10T12:47:07.512Z,1010.38
2018-02-10T12:48:17.214Z,1010.37
2018-02-10T12:49:27.162Z,1010.32
2018-02-10T12:50:36.876Z,1010.35
2018-02-10T12:51:46.825Z,1010.35
2018-02-10T12:52:56.790Z,1010.33
2018-02-10T12:54:06.739Z,1010.32
2018-02-10T12:55:16.447Z,1010.36
2018-02-10T12:56:26.453Z,1010.31
2018-02-10T12:57:36.441Z,1010.33
2018-02-10T12:58:46.390Z,1010.3
2018-02-10T12:59:56.370Z,1010.28
2018-02-10T13:01:05.817Z,1010.27
2018-02-10T13:02:15.814Z,1010.28
2018-02-10T13:03:25.759Z,1010.26
2018-02-10T13:04:35.712Z,1010.26
2018-02-10T13:05:45.408Z,1010.29
2018-02-10T13:06:55.102Z,1010.27
2018-02-10T13:08:05.064Z,1010.39
2018-02-10T13:09:14.782Z,1010.4
2018-02-10T13:10:24.738Z,1010.37
2018-02-10T13:11:34.689Z,1010.39
2018-02-10T13:12:44.383Z,1010.38
2018-02-10T13:13:54.334Z,1010.36
2018-02-10T13:15:04.297Z,1010.29
2018-02-10T13:16:13.991Z,1010.3
2018-02-10T13:17:23.942Z,1010.2
2018-02-10T13:18:33.921Z,1010.29
2018-02-10T13:19:43.892Z,1010.28
2018-02-10T13:20:53.621Z,1010.29
2018-02-10T13:22:03.575Z,1010.26
2018-02-10T13:23:13.530Z,1010.3
2018-02-10T13:24:23.230Z,1010.24
2018-02-10T13:25:33.190Z,1010.27
2018-02-10T13:26:42.623Z,1010.29
2018-02-10T13:27:52.567Z,1010.23
2018-02-10T13:29:02.523Z,1010.24
2018-02-10T13:30:12.493Z,1010.22
2018-02-10T13:31:22.463Z,1010.2
2018-02-10T13:32:32.442Z,1010.18
2018-02-10T13:33:42.138Z,1010.15
2018-02-10T13:34:52.111Z,1010.08
2018-02-10T13:36:02.082Z,1010.14
2018-02-10T13:37:11.777Z,1010.19
2018-02-10T13:38:21.746Z,1010.14
2018-02-10T13:39:31.683Z,1010.14
2018-02-10T13:40:41.625Z,1010.17
2018-02-10T13:41:51.657Z,1010.15
2018-02-10T13:43:01.419Z,1010.22
2018-02-10T13:44:11.426Z,1010.22
2018-02-10T13:45:21.374Z,1010.22
2018-02-10T13:46:31.322Z,1010.17
2018-02-10T13:47:41.299Z,1010.21
2018-02-10T13:48:50.996Z,1010.16
2018-02-10T13:50:00.976Z,1010.21
2018-02-10T13:51:10.944Z,1010.2
2018-02-10T13:52:20.908Z,1010.13
2018-02-10T13:53:30.939Z,1010.14
2018-02-10T13:54:40.903Z,1010.12
2018-02-10T13:55:50.876Z,1010.14
2018-02-10T13:57:00.847Z,1010.19
2018-02-10T13:58:10.303Z,1010.15
2018-02-10T13:59:20.017Z,1010.13
2018-02-10T14:00:29.980Z,1010.09
2018-02-10T14:01:39.945Z,1010.07
2018-02-10T14:02:49.893Z,1010.07
2018-02-10T14:03:59.853Z,1010.07
2018-02-10T14:05:09.833Z,1010.05
2018-02-10T14:06:19.563Z,1010.06
2018-02-10T14:07:29.517Z,1010.02